Terminal Aerodrome Forecast
Issued by NWS New Orleans/Baton Rouge, LA

Home | Current Version | Previous Version | Text Only | Print | Product List | Glossary On
Versions: 1 2 3 4 5 6 7 8 9 10 11 12 13 14 15
906
FTUS44 KLIX 250520
TAFBTR
TAF
KBTR 250520Z 2506/2606 00000KT P6SM SKC
     FM251200 00000KT P6SM SHRA SCT040
     FM251600 07004KT P6SM SCT050 BKN090
      TEMPO 2517/2521 09012G25KT 1SM TSRA BKN025CB=

USA.gov is the U.S. government's official web portal to all federal, state and local government web resources and services.